sensor_id;sensor_type;location;lat;lon;timestamp;temperature;humidity
23499;DHT22;11926;48.120;11.562;2024-03-17T00:02:45;10.00;99.90
23499;DHT22;11926;48.120;11.562;2024-03-17T00:05:32;9.90;99.90
23499;DHT22;11926;48.120;11.562;2024-03-17T00:08:17;9.90;99.90
23499;DHT22;11926;48.120;11.562;2024-03-17T00:11:06;9.90;99.90
23499;DHT22;11926;48.120;11.562;2024-03-17T00:13:52;9.90;99.90
23499;DHT22;11926;48.120;11.562;2024-03-17T00:16:40;9.90;99.90
23499;DHT22;11926;48.120;11.562;2024-03-17T00:19:26;9.90;99.90
23499;DHT22;11926;48.120;11.562;2024-03-17T00:22:13;9.80;99.90
23499;DHT22;11926;48.120;11.562;2024-03-17T00:24:59;9.80;99.90
23499;DHT22;11926;48.120;11.562;2024-03-17T00:27:46;9.80;99.90
23499;DHT22;11926;48.120;11.562;2024-03-17T00:30:33;9.70;99.90
23499;DHT22;11926;48.120;11.562;2024-03-17T00:33:23;9.70;99.90
23499;DHT22;11926;48.120;11.562;2024-03-17T00:36:10;9.70;99.90
23499;DHT22;11926;48.120;11.562;2024-03-17T00:38:56;9.70;99.90
23499;DHT22;11926;48.120;11.562;2024-03-17T00:41:44;9.60;99.90
23499;DHT22;11926;48.120;11.562;2024-03-17T00:44:33;9.60;99.90
23499;DHT22;11926;48.120;11.562;2024-03-17T00:47:20;9.70;99.90
23499;DHT22;11926;48.120;11.562;2024-03-17T00:50:09;9.70;99.90
23499;DHT22;11926;48.120;11.562;2024-03-17T00:52:56;9.60;99.90
23499;DHT22;11926;48.120;11.562;2024-03-17T00:55:43;9.70;99.90
23499;DHT22;11926;48.120;11.562;2024-03-17T00:58:29;9.60;99.90
23499;DHT22;11926;48.120;11.562;2024-03-17T01:01:16;9.70;99.90
23499;DHT22;11926;48.120;11.562;2024-03-17T01:04:04;9.70;99.90
23499;DHT22;11926;48.120;11.562;2024-03-17T01:06:51;9.60;99.90
23499;DHT22;11926;48.120;11.562;2024-03-17T01:09:39;9.60;99.90
23499;DHT22;11926;48.120;11.562;2024-03-17T01:12:26;9.60;99.90
23499;DHT22;11926;48.120;11.562;2024-03-17T01:15:12;9.60;99.90
23499;DHT22;11926;48.120;11.562;2024-03-17T01:17:59;9.60;99.90
23499;DHT22;11926;48.120;11.562;2024-03-17T01:20:45;9.60;99.90
23499;DHT22;11926;48.120;11.562;2024-03-17T01:23:34;9.60;99.90
23499;DHT22;11926;48.120;11.562;2024-03-17T01:26:21;9.60;99.90
23499;DHT22;11926;48.120;11.562;2024-03-17T01:29:07;9.50;99.90
23499;DHT22;11926;48.120;11.562;2024-03-17T01:31:54;9.50;99.90
23499;DHT22;11926;48.120;11.562;2024-03-17T01:34:41;9.40;99.90
23499;DHT22;11926;48.120;11.562;2024-03-17T01:37:28;9.30;99.90
23499;DHT22;11926;48.120;11.562;2024-03-17T01:40:19;9.30;99.90
23499;DHT22;11926;48.120;11.562;2024-03-17T01:43:09;9.20;99.90
23499;DHT22;11926;48.120;11.562;2024-03-17T01:45:59;9.00;99.90
23499;DHT22;11926;48.120;11.562;2024-03-17T01:48:48;9.00;99.90
23499;DHT22;11926;48.120;11.562;2024-03-17T01:51:35;8.90;99.90
23499;DHT22;11926;48.120;11.562;2024-03-17T01:54:22;8.80;99.90
23499;DHT22;11926;48.120;11.562;2024-03-17T01:57:10;8.70;99.90
23499;DHT22;11926;48.120;11.562;2024-03-17T01:59:57;8.60;99.90
23499;DHT22;11926;48.120;11.562;2024-03-17T02:02:45;8.60;99.90
23499;DHT22;11926;48.120;11.562;2024-03-17T02:05:31;8.60;99.90
23499;DHT22;11926;48.120;11.562;2024-03-17T02:08:19;8.70;99.90
23499;DHT22;11926;48.120;11.562;2024-03-17T02:11:23;8.70;99.90
23499;DHT22;11926;48.120;11.562;2024-03-17T02:14:12;8.80;99.90
23499;DHT22;11926;48.120;11.562;2024-03-17T02:17:00;8.80;99.90
23499;DHT22;11926;48.120;11.562;2024-03-17T02:19:46;8.90;99.90
23499;DHT22;11926;48.120;11.562;2024-03-17T02:22:34;8.90;99.90
23499;DHT22;11926;48.120;11.562;2024-03-17T02:25:20;8.90;99.90
23499;DHT22;11926;48.120;11.562;2024-03-17T02:28:07;9.00;99.90
23499;DHT22;11926;48.120;11.562;2024-03-17T02:30:53;9.00;99.90
23499;DHT22;11926;48.120;11.562;2024-03-17T02:33:40;9.00;99.90
23499;DHT22;11926;48.120;11.562;2024-03-17T02:36:26;9.00;99.90
23499;DHT22;11926;48.120;11.562;2024-03-17T02:39:15;9.10;99.90
23499;DHT22;11926;48.120;11.562;2024-03-17T02:42:19;9.10;99.90
23499;DHT22;11926;48.120;11.562;2024-03-17T02:45:08;9.10;99.90
23499;DHT22;11926;48.120;11.562;2024-03-17T02:47:55;9.10;99.90
23499;DHT22;11926;48.120;11.562;2024-03-17T02:50:43;9.00;99.90
23499;DHT22;11926;48.120;11.562;2024-03-17T02:53:31;9.00;99.90
23499;DHT22;11926;48.120;11.562;2024-03-17T02:56:19;9.10;99.90
23499;DHT22;11926;48.120;11.562;2024-03-17T02:59:06;9.10;99.90
23499;DHT22;11926;48.120;11.562;2024-03-17T03:04:41;9.00;99.90
23499;DHT22;11926;48.120;11.562;2024-03-17T03:07:28;9.00;99.90
23499;DHT22;11926;48.120;11.562;2024-03-17T03:10:15;8.90;99.90
23499;DHT22;11926;48.120;11.562;2024-03-17T03:13:04;8.90;99.90
23499;DHT22;11926;48.120;11.562;2024-03-17T03:15:51;8.90;99.90
23499;DHT22;11926;48.120;11.562;2024-03-17T03:18:39;8.80;99.90
23499;DHT22;11926;48.120;11.562;2024-03-17T03:21:28;8.80;99.90
23499;DHT22;11926;48.120;11.562;2024-03-17T03:24:15;8.70;99.90
23499;DHT22;11926;48.120;11.562;2024-03-17T03:27:02;8.60;99.90
23499;DHT22;11926;48.120;11.562;2024-03-17T03:29:51;8.60;99.90
23499;DHT22;11926;48.120;11.562;2024-03-17T03:32:40;8.60;99.90
23499;DHT22;11926;48.120;11.562;2024-03-17T03:35:28;8.60;99.90
23499;DHT22;11926;48.120;11.562;2024-03-17T03:38:15;8.60;99.90
23499;DHT22;11926;48.120;11.562;2024-03-17T03:41:07;8.70;99.90
23499;DHT22;11926;48.120;11.562;2024-03-17T03:43:54;8.70;99.90
23499;DHT22;11926;48.120;11.562;2024-03-17T03:46:44;8.70;99.90
23499;DHT22;11926;48.120;11.562;2024-03-17T03:49:32;8.70;99.90
23499;DHT22;11926;48.120;11.562;2024-03-17T03:52:19;8.70;99.90
23499;DHT22;11926;48.120;11.562;2024-03-17T03:55:08;8.70;99.90
23499;DHT22;11926;48.120;11.562;2024-03-17T03:57:56;8.70;99.90
23499;DHT22;11926;48.120;11.562;2024-03-17T04:00:43;8.70;99.90
23499;DHT22;11926;48.120;11.562;2024-03-17T04:03:32;8.70;99.90
23499;DHT22;11926;48.120;11.562;2024-03-17T04:06:19;8.70;99.90
23499;DHT22;11926;48.120;11.562;2024-03-17T04:09:06;8.70;99.90
23499;DHT22;11926;48.120;11.562;2024-03-17T04:11:54;8.70;99.90
23499;DHT22;11926;48.120;11.562;2024-03-17T04:14:41;8.60;99.90
23499;DHT22;11926;48.120;11.562;2024-03-17T04:17:30;8.50;99.90
23499;DHT22;11926;48.120;11.562;2024-03-17T04:20:19;8.50;99.90
23499;DHT22;11926;48.120;11.562;2024-03-17T04:23:06;8.50;99.90
23499;DHT22;11926;48.120;11.562;2024-03-17T04:25:54;8.40;99.90
23499;DHT22;11926;48.120;11.562;2024-03-17T04:28:41;8.40;99.90
23499;DHT22;11926;48.120;11.562;2024-03-17T04:31:28;8.40;99.90
23499;DHT22;11926;48.120;11.562;2024-03-17T04:34:15;8.30;99.90
23499;DHT22;11926;48.120;11.562;2024-03-17T04:37:04;8.40;99.90
23499;DHT22;11926;48.120;11.562;2024-03-17T04:39:51;8.40;99.90
23499;DHT22;11926;48.120;11.562;2024-03-17T04:42:39;8.40;99.90
23499;DHT22;11926;48.120;11.562;2024-03-17T04:45:26;8.40;99.90
23499;DHT22;11926;48.120;11.562;2024-03-17T04:48:13;8.40;99.90
23499;DHT22;11926;48.120;11.562;2024-03-17T04:51:01;8.40;99.90
23499;DHT22;11926;48.120;11.562;2024-03-17T04:53:49;8.50;99.90
23499;DHT22;11926;48.120;11.562;2024-03-17T04:56:36;8.40;99.90
23499;DHT22;11926;48.120;11.562;2024-03-17T04:59:23;8.50;99.90
23499;DHT22;11926;48.120;11.562;2024-03-17T05:02:10;8.40;99.90
23499;DHT22;11926;48.120;11.562;2024-03-17T05:04:57;8.50;99.90
23499;DHT22;11926;48.120;11.562;2024-03-17T05:07:44;8.50;99.90
23499;DHT22;11926;48.120;11.562;2024-03-17T05:10:33;8.50;99.90
23499;DHT22;11926;48.120;11.562;2024-03-17T05:13:20;8.40;99.90
23499;DHT22;11926;48.120;11.562;2024-03-17T05:16:07;8.40;99.90
23499;DHT22;11926;48.120;11.562;2024-03-17T05:18:55;8.50;99.90
23499;DHT22;11926;48.120;11.562;2024-03-17T05:21:42;8.40;99.90
23499;DHT22;11926;48.120;11.562;2024-03-17T05:24:29;8.50;99.90
23499;DHT22;11926;48.120;11.562;2024-03-17T05:27:18;8.50;99.90
23499;DHT22;11926;48.120;11.562;2024-03-17T05:30:07;8.50;99.90
23499;DHT22;11926;48.120;11.562;2024-03-17T05:32:54;8.50;99.90
23499;DHT22;11926;48.120;11.562;2024-03-17T05:35:49;8.50;99.90
23499;DHT22;11926;48.120;11.562;2024-03-17T05:38:37;8.50;99.90
23499;DHT22;11926;48.120;11.562;2024-03-17T05:41:24;8.50;99.90
23499;DHT22;11926;48.120;11.562;2024-03-17T05:44:13;8.50;99.90
23499;DHT22;11926;48.120;11.562;2024-03-17T05:47:00;8.60;99.90
23499;DHT22;11926;48.120;11.562;2024-03-17T05:49:49;8.60;99.90
23499;DHT22;11926;48.120;11.562;2024-03-17T05:52:36;8.60;99.90
23499;DHT22;11926;48.120;11.562;2024-03-17T05:55:23;8.60;99.90
23499;DHT22;11926;48.120;11.562;2024-03-17T05:58:10;8.70;99.90
23499;DHT22;11926;48.120;11.562;2024-03-17T06:01:02;8.70;99.90
23499;DHT22;11926;48.120;11.562;2024-03-17T06:03:49;8.70;99.90
23499;DHT22;11926;48.120;11.562;2024-03-17T06:06:36;8.70;99.90
23499;DHT22;11926;48.120;11.562;2024-03-17T06:09:24;8.80;99.90
23499;DHT22;11926;48.120;11.562;2024-03-17T06:12:11;8.80;99.90
23499;DHT22;11926;48.120;11.562;2024-03-17T06:14:59;8.90;99.90
23499;DHT22;11926;48.120;11.562;2024-03-17T06:17:49;8.90;99.90
23499;DHT22;11926;48.120;11.562;2024-03-17T06:20:40;8.90;99.90
23499;DHT22;11926;48.120;11.562;2024-03-17T06:23:29;8.90;99.90
23499;DHT22;11926;48.120;11.562;2024-03-17T06:26:16;9.00;99.90
23499;DHT22;11926;48.120;11.562;2024-03-17T06:29:03;9.00;99.90
23499;DHT22;11926;48.120;11.562;2024-03-17T06:31:50;9.10;99.90
23499;DHT22;11926;48.120;11.562;2024-03-17T06:34:39;9.10;99.90
23499;DHT22;11926;48.120;11.562;2024-03-17T06:37:26;9.20;99.90
23499;DHT22;11926;48.120;11.562;2024-03-17T06:40:14;9.30;99.90
23499;DHT22;11926;48.120;11.562;2024-03-17T06:43:01;9.40;99.90
23499;DHT22;11926;48.120;11.562;2024-03-17T06:45:55;9.50;99.90
23499;DHT22;11926;48.120;11.562;2024-03-17T06:48:43;9.60;99.90
23499;DHT22;11926;48.120;11.562;2024-03-17T06:51:32;9.60;99.90
23499;DHT22;11926;48.120;11.562;2024-03-17T06:54:20;9.80;99.90
23499;DHT22;11926;48.120;11.562;2024-03-17T06:57:08;9.90;99.90
23499;DHT22;11926;48.120;11.562;2024-03-17T06:59:57;9.90;99.90
23499;DHT22;11926;48.120;11.562;2024-03-17T07:02:44;10.00;99.90
23499;DHT22;11926;48.120;11.562;2024-03-17T07:05:32;10.10;99.90
23499;DHT22;11926;48.120;11.562;2024-03-17T07:08:21;10.10;99.90
23499;DHT22;11926;48.120;11.562;2024-03-17T07:11:08;10.20;99.90
23499;DHT22;11926;48.120;11.562;2024-03-17T07:13:55;10.20;99.90
23499;DHT22;11926;48.120;11.562;2024-03-17T07:16:42;10.30;99.90
23499;DHT22;11926;48.120;11.562;2024-03-17T07:19:30;10.50;99.90
23499;DHT22;11926;48.120;11.562;2024-03-17T07:22:18;10.50;99.90
23499;DHT22;11926;48.120;11.562;2024-03-17T07:25:07;10.60;99.90
23499;DHT22;11926;48.120;11.562;2024-03-17T07:27:55;10.70;99.90
23499;DHT22;11926;48.120;11.562;2024-03-17T07:30:47;10.70;99.90
23499;DHT22;11926;48.120;11.562;2024-03-17T07:33:35;10.90;99.90
23499;DHT22;11926;48.120;11.562;2024-03-17T07:36:22;11.00;99.90
23499;DHT22;11926;48.120;11.562;2024-03-17T07:39:09;11.20;99.90
23499;DHT22;11926;48.120;11.562;2024-03-17T07:42:00;11.30;99.90
23499;DHT22;11926;48.120;11.562;2024-03-17T07:44:48;11.50;99.90
23499;DHT22;11926;48.120;11.562;2024-03-17T07:47:36;11.60;99.90
23499;DHT22;11926;48.120;11.562;2024-03-17T07:50:24;11.90;99.70
23499;DHT22;11926;48.120;11.562;2024-03-17T07:53:10;12.00;99.40
23499;DHT22;11926;48.120;11.562;2024-03-17T07:55:59;12.10;99.60
23499;DHT22;11926;48.120;11.562;2024-03-17T07:58:48;12.20;98.90
23499;DHT22;11926;48.120;11.562;2024-03-17T08:01:36;12.30;98.50
23499;DHT22;11926;48.120;11.562;2024-03-17T08:04:24;12.40;98.70
23499;DHT22;11926;48.120;11.562;2024-03-17T08:07:11;12.60;98.60
23499;DHT22;11926;48.120;11.562;2024-03-17T08:09:58;12.70;98.10
23499;DHT22;11926;48.120;11.562;2024-03-17T08:12:45;12.90;97.60
23499;DHT22;11926;48.120;11.562;2024-03-17T08:15:34;13.10;97.30
23499;DHT22;11926;48.120;11.562;2024-03-17T08:18:21;13.30;96.60
23499;DHT22;11926;48.120;11.562;2024-03-17T08:21:08;13.50;96.60
23499;DHT22;11926;48.120;11.562;2024-03-17T08:23:55;13.80;96.20
23499;DHT22;11926;48.120;11.562;2024-03-17T08:26:43;13.90;95.50
23499;DHT22;11926;48.120;11.562;2024-03-17T08:29:30;14.10;95.20
23499;DHT22;11926;48.120;11.562;2024-03-17T08:32:20;14.20;94.70
23499;DHT22;11926;48.120;11.562;2024-03-17T08:35:08;14.30;94.50
23499;DHT22;11926;48.120;11.562;2024-03-17T08:37:54;14.40;94.00
23499;DHT22;11926;48.120;11.562;2024-03-17T08:40:41;14.30;93.60
23499;DHT22;11926;48.120;11.562;2024-03-17T08:43:30;14.30;93.40
23499;DHT22;11926;48.120;11.562;2024-03-17T08:46:18;14.20;93.50
23499;DHT22;11926;48.120;11.562;2024-03-17T08:49:06;14.40;93.30
23499;DHT22;11926;48.120;11.562;2024-03-17T08:51:56;14.60;92.80
23499;DHT22;11926;48.120;11.562;2024-03-17T08:54:46;14.80;92.10
23499;DHT22;11926;48.120;11.562;2024-03-17T08:57:33;14.90;92.00
23499;DHT22;11926;48.120;11.562;2024-03-17T09:00:22;15.30;91.80
23499;DHT22;11926;48.120;11.562;2024-03-17T09:03:10;15.50;90.70
23499;DHT22;11926;48.120;11.562;2024-03-17T09:05:59;15.70;90.30
23499;DHT22;11926;48.120;11.562;2024-03-17T09:08:46;15.60;88.90
23499;DHT22;11926;48.120;11.562;2024-03-17T09:11:33;15.60;88.10
23499;DHT22;11926;48.120;11.562;2024-03-17T09:14:21;15.30;88.10
23499;DHT22;11926;48.120;11.562;2024-03-17T09:17:09;15.20;87.30
23499;DHT22;11926;48.120;11.562;2024-03-17T09:19:55;15.00;87.10
23499;DHT22;11926;48.120;11.562;2024-03-17T09:22:44;15.00;86.50
23499;DHT22;11926;48.120;11.562;2024-03-17T09:25:32;15.00;87.70
23499;DHT22;11926;48.120;11.562;2024-03-17T09:28:19;15.10;86.90
23499;DHT22;11926;48.120;11.562;2024-03-17T09:31:06;15.30;86.80
23499;DHT22;11926;48.120;11.562;2024-03-17T09:33:53;15.50;86.00
23499;DHT22;11926;48.120;11.562;2024-03-17T09:36:41;15.50;84.60
23499;DHT22;11926;48.120;11.562;2024-03-17T09:39:32;15.30;83.70
23499;DHT22;11926;48.120;11.562;2024-03-17T09:42:20;15.10;84.10
23499;DHT22;11926;48.120;11.562;2024-03-17T09:45:10;14.80;84.30
23499;DHT22;11926;48.120;11.562;2024-03-17T09:47:57;14.70;84.80
23499;DHT22;11926;48.120;11.562;2024-03-17T09:50:50;14.70;84.90
23499;DHT22;11926;48.120;11.562;2024-03-17T09:53:39;14.80;85.30
23499;DHT22;11926;48.120;11.562;2024-03-17T09:59:16;15.40;85.30
23499;DHT22;11926;48.120;11.562;2024-03-17T10:02:04;16.30;83.70
23499;DHT22;11926;48.120;11.562;2024-03-17T10:04:59;16.30;81.10
23499;DHT22;11926;48.120;11.562;2024-03-17T10:07:46;16.10;79.90
23499;DHT22;11926;48.120;11.562;2024-03-17T10:10:35;15.80;81.10
23499;DHT22;11926;48.120;11.562;2024-03-17T10:13:24;15.80;81.30
23499;DHT22;11926;48.120;11.562;2024-03-17T10:16:22;15.80;80.30
23499;DHT22;11926;48.120;11.562;2024-03-17T10:19:12;15.80;80.60
23499;DHT22;11926;48.120;11.562;2024-03-17T10:22:00;15.80;80.80
23499;DHT22;11926;48.120;11.562;2024-03-17T10:24:59;15.80;79.70
23499;DHT22;11926;48.120;11.562;2024-03-17T10:27:46;15.80;79.90
23499;DHT22;11926;48.120;11.562;2024-03-17T10:30:35;15.80;79.60
23499;DHT22;11926;48.120;11.562;2024-03-17T10:33:26;15.90;78.30
23499;DHT22;11926;48.120;11.562;2024-03-17T10:36:21;16.00;78.80
23499;DHT22;11926;48.120;11.562;2024-03-17T10:39:24;16.10;77.80
23499;DHT22;11926;48.120;11.562;2024-03-17T10:42:24;16.20;77.70
23499;DHT22;11926;48.120;11.562;2024-03-17T10:45:12;16.70;77.30
23499;DHT22;11926;48.120;11.562;2024-03-17T10:48:02;18.40;76.90
23499;DHT22;11926;48.120;11.562;2024-03-17T10:50:52;18.60;75.40
23499;DHT22;11926;48.120;11.562;2024-03-17T10:53:41;19.40;71.40
23499;DHT22;11926;48.120;11.562;2024-03-17T10:56:30;19.50;70.20
23499;DHT22;11926;48.120;11.562;2024-03-17T10:59:18;19.70;69.30
23499;DHT22;11926;48.120;11.562;2024-03-17T11:02:20;20.40;68.00
23499;DHT22;11926;48.120;11.562;2024-03-17T11:05:15;21.20;64.40
23499;DHT22;11926;48.120;11.562;2024-03-17T11:08:03;21.50;63.20
23499;DHT22;11926;48.120;11.562;2024-03-17T11:10:51;21.30;64.20
23499;DHT22;11926;48.120;11.562;2024-03-17T11:13:40;21.00;63.80
23499;DHT22;11926;48.120;11.562;2024-03-17T11:16:27;20.60;63.50
23499;DHT22;11926;48.120;11.562;2024-03-17T11:19:16;20.20;62.90
23499;DHT22;11926;48.120;11.562;2024-03-17T11:25:39;19.70;63.50
23499;DHT22;11926;48.120;11.562;2024-03-17T11:28:50;19.40;62.20
23499;DHT22;11926;48.120;11.562;2024-03-17T11:31:44;19.30;63.60
23499;DHT22;11926;48.120;11.562;2024-03-17T11:34:36;19.20;63.30
23499;DHT22;11926;48.120;11.562;2024-03-17T11:40:25;19.00;63.80
23499;DHT22;11926;48.120;11.562;2024-03-17T11:43:17;19.00;62.70
23499;DHT22;11926;48.120;11.562;2024-03-17T11:46:04;18.90;62.80
23499;DHT22;11926;48.120;11.562;2024-03-17T11:48:50;18.70;63.00
23499;DHT22;11926;48.120;11.562;2024-03-17T11:51:39;18.70;62.70
23499;DHT22;11926;48.120;11.562;2024-03-17T11:54:29;18.70;62.90
23499;DHT22;11926;48.120;11.562;2024-03-17T11:57:22;18.60;64.00
23499;DHT22;11926;48.120;11.562;2024-03-17T12:00:19;18.70;65.40
23499;DHT22;11926;48.120;11.562;2024-03-17T12:03:10;18.80;64.80
23499;DHT22;11926;48.120;11.562;2024-03-17T12:05:58;18.90;64.00
23499;DHT22;11926;48.120;11.562;2024-03-17T12:08:44;18.90;63.20
23499;DHT22;11926;48.120;11.562;2024-03-17T12:11:31;18.90;63.20
23499;DHT22;11926;48.120;11.562;2024-03-17T12:14:18;18.80;63.10
23499;DHT22;11926;48.120;11.562;2024-03-17T12:17:09;18.90;63.30
23499;DHT22;11926;48.120;11.562;2024-03-17T12:19:58;18.90;63.80
23499;DHT22;11926;48.120;11.562;2024-03-17T12:22:46;18.90;63.20
23499;DHT22;11926;48.120;11.562;2024-03-17T12:25:33;18.80;63.10
23499;DHT22;11926;48.120;11.562;2024-03-17T12:28:20;18.80;64.20
23499;DHT22;11926;48.120;11.562;2024-03-17T12:31:07;18.80;63.00
23499;DHT22;11926;48.120;11.562;2024-03-17T12:33:56;18.70;62.90
23499;DHT22;11926;48.120;11.562;2024-03-17T12:36:43;18.60;62.30
23499;DHT22;11926;48.120;11.562;2024-03-17T12:39:35;18.40;62.90
23499;DHT22;11926;48.120;11.562;2024-03-17T12:42:26;18.30;63.00
23499;DHT22;11926;48.120;11.562;2024-03-17T12:45:12;18.20;63.70
23499;DHT22;11926;48.120;11.562;2024-03-17T12:47:59;18.20;64.10
23499;DHT22;11926;48.120;11.562;2024-03-17T12:50:47;18.30;64.40
23499;DHT22;11926;48.120;11.562;2024-03-17T12:53:36;18.40;64.20
23499;DHT22;11926;48.120;11.562;2024-03-17T12:56:23;18.50;64.10
23499;DHT22;11926;48.120;11.562;2024-03-17T12:59:24;18.50;64.70
23499;DHT22;11926;48.120;11.562;2024-03-17T13:02:29;18.60;63.80
23499;DHT22;11926;48.120;11.562;2024-03-17T13:05:18;18.60;64.30
23499;DHT22;11926;48.120;11.562;2024-03-17T13:08:08;18.60;64.50
23499;DHT22;11926;48.120;11.562;2024-03-17T13:10:56;18.70;64.40
23499;DHT22;11926;48.120;11.562;2024-03-17T13:13:43;18.80;64.00
23499;DHT22;11926;48.120;11.562;2024-03-17T13:16:30;18.80;63.60
23499;DHT22;11926;48.120;11.562;2024-03-17T13:19:17;18.70;63.60
23499;DHT22;11926;48.120;11.562;2024-03-17T13:22:04;18.70;62.90
23499;DHT22;11926;48.120;11.562;2024-03-17T13:24:54;18.70;62.50
23499;DHT22;11926;48.120;11.562;2024-03-17T13:27:42;18.60;62.60
23499;DHT22;11926;48.120;11.562;2024-03-17T13:30:31;18.60;62.20
23499;DHT22;11926;48.120;11.562;2024-03-17T13:33:19;18.60;62.50
23499;DHT22;11926;48.120;11.562;2024-03-17T13:36:06;18.60;62.50
23499;DHT22;11926;48.120;11.562;2024-03-17T13:38:54;18.50;62.50
23499;DHT22;11926;48.120;11.562;2024-03-17T13:41:42;18.40;62.40
23499;DHT22;11926;48.120;11.562;2024-03-17T13:44:30;18.40;62.60
23499;DHT22;11926;48.120;11.562;2024-03-17T13:47:17;18.30;62.70
23499;DHT22;11926;48.120;11.562;2024-03-17T13:50:05;18.20;63.20
23499;DHT22;11926;48.120;11.562;2024-03-17T13:52:56;18.30;63.20
23499;DHT22;11926;48.120;11.562;2024-03-17T13:55:44;18.20;63.30
23499;DHT22;11926;48.120;11.562;2024-03-17T13:58:33;18.20;63.10
23499;DHT22;11926;48.120;11.562;2024-03-17T14:01:21;18.30;64.10
23499;DHT22;11926;48.120;11.562;2024-03-17T14:04:12;18.40;63.70
23499;DHT22;11926;48.120;11.562;2024-03-17T14:07:00;18.40;63.20
23499;DHT22;11926;48.120;11.562;2024-03-17T14:09:47;18.40;63.10
23499;DHT22;11926;48.120;11.562;2024-03-17T14:12:34;18.40;62.90
23499;DHT22;11926;48.120;11.562;2024-03-17T14:15:22;18.40;63.40
23499;DHT22;11926;48.120;11.562;2024-03-17T14:18:10;18.30;64.30
23499;DHT22;11926;48.120;11.562;2024-03-17T14:20:57;18.30;63.90
23499;DHT22;11926;48.120;11.562;2024-03-17T14:23:45;18.30;63.10
23499;DHT22;11926;48.120;11.562;2024-03-17T14:26:32;18.20;64.20
23499;DHT22;11926;48.120;11.562;2024-03-17T14:29:19;18.20;64.50
23499;DHT22;11926;48.120;11.562;2024-03-17T14:32:07;18.10;64.10
23499;DHT22;11926;48.120;11.562;2024-03-17T14:34:54;18.00;64.50
23499;DHT22;11926;48.120;11.562;2024-03-17T14:37:42;17.90;64.90
23499;DHT22;11926;48.120;11.562;2024-03-17T14:40:32;17.90;64.70
23499;DHT22;11926;48.120;11.562;2024-03-17T14:43:20;17.80;65.00
23499;DHT22;11926;48.120;11.562;2024-03-17T14:46:08;17.70;65.10
23499;DHT22;11926;48.120;11.562;2024-03-17T14:48:59;17.60;65.30
23499;DHT22;11926;48.120;11.562;2024-03-17T14:51:47;17.50;65.70
23499;DHT22;11926;48.120;11.562;2024-03-17T14:54:34;17.40;66.00
23499;DHT22;11926;48.120;11.562;2024-03-17T14:57:21;17.40;66.00
23499;DHT22;11926;48.120;11.562;2024-03-17T15:00:10;17.30;66.60
23499;DHT22;11926;48.120;11.562;2024-03-17T15:03:01;17.30;66.50
23499;DHT22;11926;48.120;11.562;2024-03-17T15:05:49;17.20;66.80
23499;DHT22;11926;48.120;11.562;2024-03-17T15:08:37;17.20;66.60
23499;DHT22;11926;48.120;11.562;2024-03-17T15:11:24;17.20;66.80
23499;DHT22;11926;48.120;11.562;2024-03-17T15:14:12;17.10;66.90
23499;DHT22;11926;48.120;11.562;2024-03-17T15:16:59;17.00;66.90
23499;DHT22;11926;48.120;11.562;2024-03-17T15:19:47;16.90;67.30
23499;DHT22;11926;48.120;11.562;2024-03-17T15:22:35;16.90;67.40
23499;DHT22;11926;48.120;11.562;2024-03-17T15:25:24;16.80;67.60
23499;DHT22;11926;48.120;11.562;2024-03-17T15:28:11;16.80;67.70
23499;DHT22;11926;48.120;11.562;2024-03-17T15:30:59;16.80;68.10
23499;DHT22;11926;48.120;11.562;2024-03-17T15:33:50;16.70;68.20
23499;DHT22;11926;48.120;11.562;2024-03-17T15:36:38;16.60;68.30
23499;DHT22;11926;48.120;11.562;2024-03-17T15:39:26;16.50;68.50
23499;DHT22;11926;48.120;11.562;2024-03-17T15:42:14;16.50;68.80
23499;DHT22;11926;48.120;11.562;2024-03-17T15:45:03;16.50;69.00
23499;DHT22;11926;48.120;11.562;2024-03-17T15:47:53;16.40;69.40
23499;DHT22;11926;48.120;11.562;2024-03-17T15:50:42;16.40;69.80
23499;DHT22;11926;48.120;11.562;2024-03-17T15:53:29;16.40;69.80
23499;DHT22;11926;48.120;11.562;2024-03-17T15:56:17;16.30;70.50
23499;DHT22;11926;48.120;11.562;2024-03-17T15:59:04;16.30;70.70
23499;DHT22;11926;48.120;11.562;2024-03-17T16:01:52;16.30;70.50
23499;DHT22;11926;48.120;11.562;2024-03-17T16:04:41;16.30;70.30
23499;DHT22;11926;48.120;11.562;2024-03-17T16:07:29;16.20;70.30
23499;DHT22;11926;48.120;11.562;2024-03-17T16:10:19;16.20;71.00
23499;DHT22;11926;48.120;11.562;2024-03-17T16:13:10;16.20;71.20
23499;DHT22;11926;48.120;11.562;2024-03-17T16:15:59;16.20;71.20
23499;DHT22;11926;48.120;11.562;2024-03-17T16:18:47;16.10;71.20
23499;DHT22;11926;48.120;11.562;2024-03-17T16:21:35;16.10;71.10
23499;DHT22;11926;48.120;11.562;2024-03-17T16:24:25;16.00;71.00
23499;DHT22;11926;48.120;11.562;2024-03-17T16:27:13;16.00;71.40
23499;DHT22;11926;48.120;11.562;2024-03-17T16:30:03;15.90;71.80
23499;DHT22;11926;48.120;11.562;2024-03-17T16:32:54;15.90;71.60
23499;DHT22;11926;48.120;11.562;2024-03-17T16:35:41;15.80;71.70
23499;DHT22;11926;48.120;11.562;2024-03-17T16:38:30;15.80;72.10
23499;DHT22;11926;48.120;11.562;2024-03-17T16:41:18;15.70;72.10
23499;DHT22;11926;48.120;11.562;2024-03-17T16:44:11;15.60;72.30
23499;DHT22;11926;48.120;11.562;2024-03-17T16:50:21;15.50;73.20
23499;DHT22;11926;48.120;11.562;2024-03-17T16:53:09;15.50;73.40
23499;DHT22;11926;48.120;11.562;2024-03-17T16:55:56;15.40;73.40
23499;DHT22;11926;48.120;11.562;2024-03-17T16:58:45;15.40;73.60
23499;DHT22;11926;48.120;11.562;2024-03-17T17:01:32;15.20;73.90
23499;DHT22;11926;48.120;11.562;2024-03-17T17:04:24;15.20;74.50
23499;DHT22;11926;48.120;11.562;2024-03-17T17:07:13;15.20;75.20
23499;DHT22;11926;48.120;11.562;2024-03-17T17:10:00;15.10;75.10
23499;DHT22;11926;48.120;11.562;2024-03-17T17:12:47;15.10;75.30
23499;DHT22;11926;48.120;11.562;2024-03-17T17:15:34;15.00;75.40
23499;DHT22;11926;48.120;11.562;2024-03-17T17:18:52;15.00;75.50
23499;DHT22;11926;48.120;11.562;2024-03-17T17:21:41;15.00;76.40
23499;DHT22;11926;48.120;11.562;2024-03-17T17:24:29;14.90;76.50
23499;DHT22;11926;48.120;11.562;2024-03-17T17:27:17;14.90;76.90
23499;DHT22;11926;48.120;11.562;2024-03-17T17:30:07;14.90;76.90
23499;DHT22;11926;48.120;11.562;2024-03-17T17:32:54;14.80;77.20
23499;DHT22;11926;48.120;11.562;2024-03-17T17:35:41;14.80;77.50
23499;DHT22;11926;48.120;11.562;2024-03-17T17:38:29;14.70;77.50
23499;DHT22;11926;48.120;11.562;2024-03-17T17:41:16;14.60;77.60
23499;DHT22;11926;48.120;11.562;2024-03-17T17:44:03;14.50;77.70
23499;DHT22;11926;48.120;11.562;2024-03-17T17:46:51;14.50;78.40
23499;DHT22;11926;48.120;11.562;2024-03-17T17:49:38;14.50;78.60
23499;DHT22;11926;48.120;11.562;2024-03-17T17:52:25;14.40;78.40